sensor_id;sensor_type;location;lat;lon;timestamp;temperature;humidity
14924;DHT22;7554;43.600;1.480;2022-09-17T00:00:24;18.10;1.00
14924;DHT22;7554;43.600;1.480;2022-09-17T00:02:53;18.10;1.00
14924;DHT22;7554;43.600;1.480;2022-09-17T00:05:21;18.10;1.00
14924;DHT22;7554;43.600;1.480;2022-09-17T00:07:50;18.10;1.00
14924;DHT22;7554;43.600;1.480;2022-09-17T00:10:18;18.00;1.00
14924;DHT22;7554;43.600;1.480;2022-09-17T00:12:46;18.00;1.00
14924;DHT22;7554;43.600;1.480;2022-09-17T00:15:14;18.00;1.00
14924;DHT22;7554;43.600;1.480;2022-09-17T00:17:42;17.90;1.00
14924;DHT22;7554;43.600;1.480;2022-09-17T00:20:11;18.00;1.00
14924;DHT22;7554;43.600;1.480;2022-09-17T00:22:38;17.90;1.00
14924;DHT22;7554;43.600;1.480;2022-09-17T00:25:06;17.90;1.00
14924;DHT22;7554;43.600;1.480;2022-09-17T00:27:34;17.80;1.00
14924;DHT22;7554;43.600;1.480;2022-09-17T00:30:02;17.70;1.00
14924;DHT22;7554;43.600;1.480;2022-09-17T00:32:30;17.70;1.00
14924;DHT22;7554;43.600;1.480;2022-09-17T00:34:58;17.70;1.00
14924;DHT22;7554;43.600;1.480;2022-09-17T00:37:26;17.70;1.00
14924;DHT22;7554;43.600;1.480;2022-09-17T00:39:54;17.70;1.00
14924;DHT22;7554;43.600;1.480;2022-09-17T00:42:22;17.60;1.00
14924;DHT22;7554;43.600;1.480;2022-09-17T00:44:51;17.60;1.00
14924;DHT22;7554;43.600;1.480;2022-09-17T00:47:23;17.60;1.00
14924;DHT22;7554;43.600;1.480;2022-09-17T00:49:53;17.60;1.00
14924;DHT22;7554;43.600;1.480;2022-09-17T00:52:24;17.60;1.00
14924;DHT22;7554;43.600;1.480;2022-09-17T00:54:59;17.50;1.00
14924;DHT22;7554;43.600;1.480;2022-09-17T00:57:28;17.50;1.00
14924;DHT22;7554;43.600;1.480;2022-09-17T00:59:56;17.40;1.00
14924;DHT22;7554;43.600;1.480;2022-09-17T01:02:25;17.40;1.00
14924;DHT22;7554;43.600;1.480;2022-09-17T01:04:53;17.30;1.00
14924;DHT22;7554;43.600;1.480;2022-09-17T01:07:37;17.30;1.00
14924;DHT22;7554;43.600;1.480;2022-09-17T01:10:17;17.30;1.00
14924;DHT22;7554;43.600;1.480;2022-09-17T01:13:00;17.30;1.00
14924;DHT22;7554;43.600;1.480;2022-09-17T01:15:44;17.30;1.00
14924;DHT22;7554;43.600;1.480;2022-09-17T01:18:26;17.30;1.00
14924;DHT22;7554;43.600;1.480;2022-09-17T01:21:22;17.20;1.00
14924;DHT22;7554;43.600;1.480;2022-09-17T01:30:58;17.30;1.00
14924;DHT22;7554;43.600;1.480;2022-09-17T01:33:34;17.20;1.00
14924;DHT22;7554;43.600;1.480;2022-09-17T01:36:14;17.10;1.00
14924;DHT22;7554;43.600;1.480;2022-09-17T01:38:48;17.10;1.00
14924;DHT22;7554;43.600;1.480;2022-09-17T01:41:25;17.10;1.00
14924;DHT22;7554;43.600;1.480;2022-09-17T01:44:00;17.10;1.00
14924;DHT22;7554;43.600;1.480;2022-09-17T01:46:34;17.00;1.00
14924;DHT22;7554;43.600;1.480;2022-09-17T01:49:05;17.00;1.00
14924;DHT22;7554;43.600;1.480;2022-09-17T01:51:37;17.00;1.00
14924;DHT22;7554;43.600;1.480;2022-09-17T01:54:09;17.00;1.00
14924;DHT22;7554;43.600;1.480;2022-09-17T01:56:41;17.10;1.00
14924;DHT22;7554;43.600;1.480;2022-09-17T01:59:17;17.10;1.00
14924;DHT22;7554;43.600;1.480;2022-09-17T02:01:52;17.30;1.00
14924;DHT22;7554;43.600;1.480;2022-09-17T02:04:23;17.30;1.00
14924;DHT22;7554;43.600;1.480;2022-09-17T02:06:55;17.40;1.00
14924;DHT22;7554;43.600;1.480;2022-09-17T02:09:28;17.40;1.00
14924;DHT22;7554;43.600;1.480;2022-09-17T02:11:59;17.40;1.00
14924;DHT22;7554;43.600;1.480;2022-09-17T02:14:32;17.40;1.00
14924;DHT22;7554;43.600;1.480;2022-09-17T02:17:08;17.40;1.00
14924;DHT22;7554;43.600;1.480;2022-09-17T02:19:39;17.40;1.00
14924;DHT22;7554;43.600;1.480;2022-09-17T02:22:15;17.40;1.00
14924;DHT22;7554;43.600;1.480;2022-09-17T02:24:51;17.40;1.00
14924;DHT22;7554;43.600;1.480;2022-09-17T02:27:26;17.30;1.00
14924;DHT22;7554;43.600;1.480;2022-09-17T02:30:00;17.40;1.00
14924;DHT22;7554;43.600;1.480;2022-09-17T02:32:29;17.40;1.00
14924;DHT22;7554;43.600;1.480;2022-09-17T02:34:56;17.40;1.00
14924;DHT22;7554;43.600;1.480;2022-09-17T02:37:24;17.40;1.00
14924;DHT22;7554;43.600;1.480;2022-09-17T02:39:52;17.40;1.00
14924;DHT22;7554;43.600;1.480;2022-09-17T02:42:26;17.40;1.00
14924;DHT22;7554;43.600;1.480;2022-09-17T02:45:01;17.40;1.00
14924;DHT22;7554;43.600;1.480;2022-09-17T02:48:00;17.50;1.00
14924;DHT22;7554;43.600;1.480;2022-09-17T02:50:45;17.40;1.00
14924;DHT22;7554;43.600;1.480;2022-09-17T02:53:30;17.30;1.00
14924;DHT22;7554;43.600;1.480;2022-09-17T02:56:09;17.30;1.00
14924;DHT22;7554;43.600;1.480;2022-09-17T02:58:46;17.30;1.00
14924;DHT22;7554;43.600;1.480;2022-09-17T03:01:21;17.30;1.00
14924;DHT22;7554;43.600;1.480;2022-09-17T03:03:53;17.20;1.00
14924;DHT22;7554;43.600;1.480;2022-09-17T03:06:24;17.20;1.00
14924;DHT22;7554;43.600;1.480;2022-09-17T03:08:52;17.10;1.00
14924;DHT22;7554;43.600;1.480;2022-09-17T03:11:22;17.10;1.00
14924;DHT22;7554;43.600;1.480;2022-09-17T03:13:49;17.10;1.00
14924;DHT22;7554;43.600;1.480;2022-09-17T03:16:17;17.00;1.00
14924;DHT22;7554;43.600;1.480;2022-09-17T03:18:44;17.00;1.00
14924;DHT22;7554;43.600;1.480;2022-09-17T03:21:13;16.90;1.00
14924;DHT22;7554;43.600;1.480;2022-09-17T03:23:40;16.80;1.00
14924;DHT22;7554;43.600;1.480;2022-09-17T03:26:08;16.80;1.00
14924;DHT22;7554;43.600;1.480;2022-09-17T03:28:35;16.80;1.00
14924;DHT22;7554;43.600;1.480;2022-09-17T03:31:02;16.70;1.00
14924;DHT22;7554;43.600;1.480;2022-09-17T03:33:30;16.60;1.00
14924;DHT22;7554;43.600;1.480;2022-09-17T03:35:58;16.70;1.00
14924;DHT22;7554;43.600;1.480;2022-09-17T03:38:27;16.70;1.00
14924;DHT22;7554;43.600;1.480;2022-09-17T03:40:58;16.60;1.00
14924;DHT22;7554;43.600;1.480;2022-09-17T03:43:25;16.60;1.00
14924;DHT22;7554;43.600;1.480;2022-09-17T03:45:53;16.60;1.00
14924;DHT22;7554;43.600;1.480;2022-09-17T03:48:20;16.60;1.00
14924;DHT22;7554;43.600;1.480;2022-09-17T03:50:48;16.50;1.00
14924;DHT22;7554;43.600;1.480;2022-09-17T03:53:15;16.50;1.00
14924;DHT22;7554;43.600;1.480;2022-09-17T03:55:44;16.40;1.00
14924;DHT22;7554;43.600;1.480;2022-09-17T03:58:12;16.50;1.00
14924;DHT22;7554;43.600;1.480;2022-09-17T04:00:39;16.40;1.00
14924;DHT22;7554;43.600;1.480;2022-09-17T04:03:08;16.40;1.00
14924;DHT22;7554;43.600;1.480;2022-09-17T04:05:35;16.40;1.00
14924;DHT22;7554;43.600;1.480;2022-09-17T04:08:03;16.40;1.00
14924;DHT22;7554;43.600;1.480;2022-09-17T04:10:30;16.30;1.00
14924;DHT22;7554;43.600;1.480;2022-09-17T04:12:59;16.40;1.00
14924;DHT22;7554;43.600;1.480;2022-09-17T04:15:26;16.30;1.00
14924;DHT22;7554;43.600;1.480;2022-09-17T04:17:55;16.30;1.00
14924;DHT22;7554;43.600;1.480;2022-09-17T04:20:24;16.40;1.00
14924;DHT22;7554;43.600;1.480;2022-09-17T04:22:51;16.40;1.00
14924;DHT22;7554;43.600;1.480;2022-09-17T04:25:18;16.30;1.00
14924;DHT22;7554;43.600;1.480;2022-09-17T04:27:46;16.30;1.00
14924;DHT22;7554;43.600;1.480;2022-09-17T04:30:15;16.30;1.00
14924;DHT22;7554;43.600;1.480;2022-09-17T04:32:43;16.20;1.00
14924;DHT22;7554;43.600;1.480;2022-09-17T04:35:11;16.20;1.00
14924;DHT22;7554;43.600;1.480;2022-09-17T04:37:39;16.20;1.00
14924;DHT22;7554;43.600;1.480;2022-09-17T04:40:07;16.20;1.00
14924;DHT22;7554;43.600;1.480;2022-09-17T04:42:35;16.20;1.00
14924;DHT22;7554;43.600;1.480;2022-09-17T04:45:03;16.10;1.00
14924;DHT22;7554;43.600;1.480;2022-09-17T04:47:31;16.10;1.00
14924;DHT22;7554;43.600;1.480;2022-09-17T04:49:59;16.10;1.00
14924;DHT22;7554;43.600;1.480;2022-09-17T04:52:26;16.10;1.00
14924;DHT22;7554;43.600;1.480;2022-09-17T04:54:53;16.20;1.00
14924;DHT22;7554;43.600;1.480;2022-09-17T04:57:21;16.20;1.00
14924;DHT22;7554;43.600;1.480;2022-09-17T04:59:50;16.20;1.00
14924;DHT22;7554;43.600;1.480;2022-09-17T05:02:18;16.20;1.00
14924;DHT22;7554;43.600;1.480;2022-09-17T05:04:47;16.20;1.00
14924;DHT22;7554;43.600;1.480;2022-09-17T05:07:15;16.10;1.00
14924;DHT22;7554;43.600;1.480;2022-09-17T05:09:42;16.20;1.00
14924;DHT22;7554;43.600;1.480;2022-09-17T05:12:10;16.20;1.00
14924;DHT22;7554;43.600;1.480;2022-09-17T05:14:37;16.20;1.00
14924;DHT22;7554;43.600;1.480;2022-09-17T05:17:05;16.20;1.00
14924;DHT22;7554;43.600;1.480;2022-09-17T05:19:32;16.20;1.00
14924;DHT22;7554;43.600;1.480;2022-09-17T05:22:01;16.20;1.00
14924;DHT22;7554;43.600;1.480;2022-09-17T05:24:28;16.20;1.00
14924;DHT22;7554;43.600;1.480;2022-09-17T05:27:16;16.20;1.00
14924;DHT22;7554;43.600;1.480;2022-09-17T05:29:43;16.20;1.00
14924;DHT22;7554;43.600;1.480;2022-09-17T05:32:11;16.10;1.00
14924;DHT22;7554;43.600;1.480;2022-09-17T05:34:38;16.20;1.00
14924;DHT22;7554;43.600;1.480;2022-09-17T05:37:08;16.20;1.00
14924;DHT22;7554;43.600;1.480;2022-09-17T05:39:35;16.00;1.00
14924;DHT22;7554;43.600;1.480;2022-09-17T05:42:03;16.00;1.00
14924;DHT22;7554;43.600;1.480;2022-09-17T05:44:30;16.20;1.00
14924;DHT22;7554;43.600;1.480;2022-09-17T05:46:58;16.10;1.00
14924;DHT22;7554;43.600;1.480;2022-09-17T05:49:25;16.10;1.00
14924;DHT22;7554;43.600;1.480;2022-09-17T05:51:52;16.10;1.00
14924;DHT22;7554;43.600;1.480;2022-09-17T05:54:21;16.10;1.00
14924;DHT22;7554;43.600;1.480;2022-09-17T05:56:52;16.10;1.00
14924;DHT22;7554;43.600;1.480;2022-09-17T05:59:19;16.10;1.00
14924;DHT22;7554;43.600;1.480;2022-09-17T06:01:47;16.10;1.00
14924;DHT22;7554;43.600;1.480;2022-09-17T06:04:15;16.10;1.00
14924;DHT22;7554;43.600;1.480;2022-09-17T06:06:44;16.20;1.00
14924;DHT22;7554;43.600;1.480;2022-09-17T06:09:11;16.20;1.00
14924;DHT22;7554;43.600;1.480;2022-09-17T06:11:40;16.20;1.00
14924;DHT22;7554;43.600;1.480;2022-09-17T06:14:08;16.30;1.00
14924;DHT22;7554;43.600;1.480;2022-09-17T06:16:35;16.40;1.00
14924;DHT22;7554;43.600;1.480;2022-09-17T06:19:03;16.40;1.00
14924;DHT22;7554;43.600;1.480;2022-09-17T06:21:30;16.40;1.00
14924;DHT22;7554;43.600;1.480;2022-09-17T06:23:58;16.50;1.00
14924;DHT22;7554;43.600;1.480;2022-09-17T06:26:26;16.50;1.00
14924;DHT22;7554;43.600;1.480;2022-09-17T06:28:55;16.60;1.00
14924;DHT22;7554;43.600;1.480;2022-09-17T06:31:24;16.80;1.00
14924;DHT22;7554;43.600;1.480;2022-09-17T06:33:51;17.10;1.00
14924;DHT22;7554;43.600;1.480;2022-09-17T06:36:19;17.20;1.00
14924;DHT22;7554;43.600;1.480;2022-09-17T06:38:46;17.40;1.00
14924;DHT22;7554;43.600;1.480;2022-09-17T06:41:13;17.80;1.00
14924;DHT22;7554;43.600;1.480;2022-09-17T06:43:41;18.30;1.00
14924;DHT22;7554;43.600;1.480;2022-09-17T06:46:11;19.40;1.00
14924;DHT22;7554;43.600;1.480;2022-09-17T06:48:38;19.60;1.00
14924;DHT22;7554;43.600;1.480;2022-09-17T06:51:06;19.20;1.00
14924;DHT22;7554;43.600;1.480;2022-09-17T06:53:35;18.90;1.00
14924;DHT22;7554;43.600;1.480;2022-09-17T06:56:04;19.00;1.00
14924;DHT22;7554;43.600;1.480;2022-09-17T06:58:32;19.10;1.00
14924;DHT22;7554;43.600;1.480;2022-09-17T07:01:02;19.10;1.00
14924;DHT22;7554;43.600;1.480;2022-09-17T07:03:32;18.90;1.00
14924;DHT22;7554;43.600;1.480;2022-09-17T07:05:59;18.60;1.00
14924;DHT22;7554;43.600;1.480;2022-09-17T07:08:27;18.70;1.00
14924;DHT22;7554;43.600;1.480;2022-09-17T07:10:55;18.80;1.00
14924;DHT22;7554;43.600;1.480;2022-09-17T07:13:23;19.80;1.00
14924;DHT22;7554;43.600;1.480;2022-09-17T07:15:54;20.80;1.00
14924;DHT22;7554;43.600;1.480;2022-09-17T07:18:22;23.80;1.00
14924;DHT22;7554;43.600;1.480;2022-09-17T07:20:55;22.40;1.00
14924;DHT22;7554;43.600;1.480;2022-09-17T07:23:23;21.50;1.00
14924;DHT22;7554;43.600;1.480;2022-09-17T07:25:51;23.90;1.00
14924;DHT22;7554;43.600;1.480;2022-09-17T07:28:19;24.90;1.00
14924;DHT22;7554;43.600;1.480;2022-09-17T07:30:48;27.30;1.00
14924;DHT22;7554;43.600;1.480;2022-09-17T07:33:15;29.10;1.00
14924;DHT22;7554;43.600;1.480;2022-09-17T07:35:51;29.50;1.00
14924;DHT22;7554;43.600;1.480;2022-09-17T07:38:21;29.80;1.00
14924;DHT22;7554;43.600;1.480;2022-09-17T07:40:56;30.20;1.00
14924;DHT22;7554;43.600;1.480;2022-09-17T07:43:24;30.30;1.00
14924;DHT22;7554;43.600;1.480;2022-09-17T07:45:52;30.50;1.00
14924;DHT22;7554;43.600;1.480;2022-09-17T07:48:19;31.40;1.00
14924;DHT22;7554;43.600;1.480;2022-09-17T07:50:47;31.80;1.00
14924;DHT22;7554;43.600;1.480;2022-09-17T07:53:14;31.10;1.00
14924;DHT22;7554;43.600;1.480;2022-09-17T07:55:50;32.00;1.00
14924;DHT22;7554;43.600;1.480;2022-09-17T07:58:18;31.20;1.00
14924;DHT22;7554;43.600;1.480;2022-09-17T08:00:45;28.20;1.00
14924;DHT22;7554;43.600;1.480;2022-09-17T08:03:13;25.50;1.00
14924;DHT22;7554;43.600;1.480;2022-09-17T08:05:40;24.80;1.00
14924;DHT22;7554;43.600;1.480;2022-09-17T08:08:07;29.00;1.00
14924;DHT22;7554;43.600;1.480;2022-09-17T08:10:35;27.80;1.00
14924;DHT22;7554;43.600;1.480;2022-09-17T08:13:04;29.30;1.00
14924;DHT22;7554;43.600;1.480;2022-09-17T08:15:31;28.80;1.00
14924;DHT22;7554;43.600;1.480;2022-09-17T08:17:58;29.50;1.00
14924;DHT22;7554;43.600;1.480;2022-09-17T08:20:26;29.50;1.00
14924;DHT22;7554;43.600;1.480;2022-09-17T08:23:02;32.20;1.00
14924;DHT22;7554;43.600;1.480;2022-09-17T08:25:30;32.40;1.00
14924;DHT22;7554;43.600;1.480;2022-09-17T08:27:57;30.60;1.00
14924;DHT22;7554;43.600;1.480;2022-09-17T08:30:26;31.80;1.00
14924;DHT22;7554;43.600;1.480;2022-09-17T08:32:54;32.50;1.00
14924;DHT22;7554;43.600;1.480;2022-09-17T08:35:22;33.30;1.00
14924;DHT22;7554;43.600;1.480;2022-09-17T08:37:53;33.00;1.00
14924;DHT22;7554;43.600;1.480;2022-09-17T08:40:23;31.40;1.00
14924;DHT22;7554;43.600;1.480;2022-09-17T08:42:55;30.80;1.00
14924;DHT22;7554;43.600;1.480;2022-09-17T08:45:28;31.30;1.00
14924;DHT22;7554;43.600;1.480;2022-09-17T08:48:01;30.60;1.00
14924;DHT22;7554;43.600;1.480;2022-09-17T08:50:31;29.80;1.00
14924;DHT22;7554;43.600;1.480;2022-09-17T08:53:16;27.10;1.00
14924;DHT22;7554;43.600;1.480;2022-09-17T08:55:53;25.30;1.00
14924;DHT22;7554;43.600;1.480;2022-09-17T08:58:42;24.60;1.00
14924;DHT22;7554;43.600;1.480;2022-09-17T09:01:23;24.10;1.00
14924;DHT22;7554;43.600;1.480;2022-09-17T09:04:16;24.10;1.00
14924;DHT22;7554;43.600;1.480;2022-09-17T09:06:51;24.40;1.00
14924;DHT22;7554;43.600;1.480;2022-09-17T09:09:21;24.20;1.00
14924;DHT22;7554;43.600;1.480;2022-09-17T09:11:54;24.20;1.00
14924;DHT22;7554;43.600;1.480;2022-09-17T09:14:26;24.00;1.00
14924;DHT22;7554;43.600;1.480;2022-09-17T09:16:56;24.10;1.00
14924;DHT22;7554;43.600;1.480;2022-09-17T09:19:26;24.00;1.00
14924;DHT22;7554;43.600;1.480;2022-09-17T09:22:01;24.10;1.00
14924;DHT22;7554;43.600;1.480;2022-09-17T09:24:39;23.90;1.00
14924;DHT22;7554;43.600;1.480;2022-09-17T09:27:15;23.70;1.00
14924;DHT22;7554;43.600;1.480;2022-09-17T09:29:51;23.00;1.00
14924;DHT22;7554;43.600;1.480;2022-09-17T09:32:37;23.00;1.00
14924;DHT22;7554;43.600;1.480;2022-09-17T09:35:15;23.40;1.00
14924;DHT22;7554;43.600;1.480;2022-09-17T09:37:47;23.50;1.00
14924;DHT22;7554;43.600;1.480;2022-09-17T09:40:25;23.50;1.00
14924;DHT22;7554;43.600;1.480;2022-09-17T09:42:59;22.10;1.00
14924;DHT22;7554;43.600;1.480;2022-09-17T09:45:43;22.20;1.00
14924;DHT22;7554;43.600;1.480;2022-09-17T09:48:21;22.50;1.00
14924;DHT22;7554;43.600;1.480;2022-09-17T09:51:03;22.40;1.00
14924;DHT22;7554;43.600;1.480;2022-09-17T09:53:45;22.70;1.00
14924;DHT22;7554;43.600;1.480;2022-09-17T09:56:36;22.80;1.00
14924;DHT22;7554;43.600;1.480;2022-09-17T09:59:10;22.70;1.00
14924;DHT22;7554;43.600;1.480;2022-09-17T10:01:40;22.70;1.00
14924;DHT22;7554;43.600;1.480;2022-09-17T10:04:18;22.60;1.00
14924;DHT22;7554;43.600;1.480;2022-09-17T10:06:47;22.60;1.00
14924;DHT22;7554;43.600;1.480;2022-09-17T10:09:16;22.80;1.00
14924;DHT22;7554;43.600;1.480;2022-09-17T10:12:02;22.90;1.00
14924;DHT22;7554;43.600;1.480;2022-09-17T10:14:32;22.90;1.00
14924;DHT22;7554;43.600;1.480;2022-09-17T10:17:17;22.80;1.00
14924;DHT22;7554;43.600;1.480;2022-09-17T10:20:11;22.30;1.00
14924;DHT22;7554;43.600;1.480;2022-09-17T10:22:40;22.40;1.00
14924;DHT22;7554;43.600;1.480;2022-09-17T10:25:23;21.80;1.00
14924;DHT22;7554;43.600;1.480;2022-09-17T10:27:53;22.00;1.00
14924;DHT22;7554;43.600;1.480;2022-09-17T10:30:21;22.10;1.00
14924;DHT22;7554;43.600;1.480;2022-09-17T10:33:14;22.10;1.00
14924;DHT22;7554;43.600;1.480;2022-09-17T10:35:55;22.20;1.00
14924;DHT22;7554;43.600;1.480;2022-09-17T10:38:31;22.20;1.00
14924;DHT22;7554;43.600;1.480;2022-09-17T10:41:12;22.10;1.00
14924;DHT22;7554;43.600;1.480;2022-09-17T10:43:40;22.40;1.00
14924;DHT22;7554;43.600;1.480;2022-09-17T10:46:11;22.30;1.00
14924;DHT22;7554;43.600;1.480;2022-09-17T10:48:43;22.40;1.00
14924;DHT22;7554;43.600;1.480;2022-09-17T10:51:21;22.50;1.00
14924;DHT22;7554;43.600;1.480;2022-09-17T10:54:25;22.20;1.00
14924;DHT22;7554;43.600;1.480;2022-09-17T10:56:58;22.20;1.00
14924;DHT22;7554;43.600;1.480;2022-09-17T10:59:41;22.40;1.00
14924;DHT22;7554;43.600;1.480;2022-09-17T11:02:32;22.50;1.00
14924;DHT22;7554;43.600;1.480;2022-09-17T11:05:16;22.60;1.00
14924;DHT22;7554;43.600;1.480;2022-09-17T11:07:52;22.50;1.00
14924;DHT22;7554;43.600;1.480;2022-09-17T11:10:27;22.20;1.00
14924;DHT22;7554;43.600;1.480;2022-09-17T11:13:07;22.30;1.00
14924;DHT22;7554;43.600;1.480;2022-09-17T11:15:48;22.30;1.00
14924;DHT22;7554;43.600;1.480;2022-09-17T11:18:35;22.20;1.00
14924;DHT22;7554;43.600;1.480;2022-09-17T11:21:18;22.10;1.00
14924;DHT22;7554;43.600;1.480;2022-09-17T11:26:56;22.30;1.00
14924;DHT22;7554;43.600;1.480;2022-09-17T11:29:43;21.90;1.00
14924;DHT22;7554;43.600;1.480;2022-09-17T11:32:27;21.90;1.00
14924;DHT22;7554;43.600;1.480;2022-09-17T11:35:01;21.90;1.00
14924;DHT22;7554;43.600;1.480;2022-09-17T11:37:32;21.70;1.00
14924;DHT22;7554;43.600;1.480;2022-09-17T11:40:07;21.70;1.00
14924;DHT22;7554;43.600;1.480;2022-09-17T11:42:41;21.90;1.00
14924;DHT22;7554;43.600;1.480;2022-09-17T11:45:14;21.80;1.00
14924;DHT22;7554;43.600;1.480;2022-09-17T11:47:47;21.80;1.00
14924;DHT22;7554;43.600;1.480;2022-09-17T11:50:20;21.60;1.00
14924;DHT22;7554;43.600;1.480;2022-09-17T11:52:59;21.90;1.00
14924;DHT22;7554;43.600;1.480;2022-09-17T11:55:34;21.80;1.00
14924;DHT22;7554;43.600;1.480;2022-09-17T11:58:10;21.80;1.00
14924;DHT22;7554;43.600;1.480;2022-09-17T12:00:45;21.90;1.00
14924;DHT22;7554;43.600;1.480;2022-09-17T12:03:19;22.00;1.00
14924;DHT22;7554;43.600;1.480;2022-09-17T12:05:52;22.00;1.00
14924;DHT22;7554;43.600;1.480;2022-09-17T12:08:23;21.90;1.00
14924;DHT22;7554;43.600;1.480;2022-09-17T12:10:59;21.90;1.00
14924;DHT22;7554;43.600;1.480;2022-09-17T12:13:33;21.90;1.00
14924;DHT22;7554;43.600;1.480;2022-09-17T12:16:14;21.90;1.00
14924;DHT22;7554;43.600;1.480;2022-09-17T12:18:51;22.00;1.00
14924;DHT22;7554;43.600;1.480;2022-09-17T12:21:24;22.00;1.00
14924;DHT22;7554;43.600;1.480;2022-09-17T12:23:58;21.90;1.00
14924;DHT22;7554;43.600;1.480;2022-09-17T12:26:38;21.70;1.00
14924;DHT22;7554;43.600;1.480;2022-09-17T12:29:22;21.70;1.00
14924;DHT22;7554;43.600;1.480;2022-09-17T12:31:56;21.80;1.00
14924;DHT22;7554;43.600;1.480;2022-09-17T12:34:34;21.90;1.00
14924;DHT22;7554;43.600;1.480;2022-09-17T12:37:12;22.00;1.00
14924;DHT22;7554;43.600;1.480;2022-09-17T12:40:06;22.10;1.00
14924;DHT22;7554;43.600;1.480;2022-09-17T12:42:50;22.10;1.00
14924;DHT22;7554;43.600;1.480;2022-09-17T12:45:29;22.00;1.00
14924;DHT22;7554;43.600;1.480;2022-09-17T12:48:22;22.10;1.00
14924;DHT22;7554;43.600;1.480;2022-09-17T12:51:03;22.10;1.00
14924;DHT22;7554;43.600;1.480;2022-09-17T12:53:35;21.80;1.00
14924;DHT22;7554;43.600;1.480;2022-09-17T12:56:20;21.80;1.00
14924;DHT22;7554;43.600;1.480;2022-09-17T12:59:08;21.70;1.00
14924;DHT22;7554;43.600;1.480;2022-09-17T13:01:42;21.90;1.00
14924;DHT22;7554;43.600;1.480;2022-09-17T13:04:27;21.90;1.00
14924;DHT22;7554;43.600;1.480;2022-09-17T13:07:34;21.90;1.00
14924;DHT22;7554;43.600;1.480;2022-09-17T13:10:32;21.90;1.00
14924;DHT22;7554;43.600;1.480;2022-09-17T13:13:19;21.80;1.00
14924;DHT22;7554;43.600;1.480;2022-09-17T13:15:56;21.80;1.00
14924;DHT22;7554;43.600;1.480;2022-09-17T13:18:32;21.80;1.00
14924;DHT22;7554;43.600;1.480;2022-09-17T13:21:07;21.80;1.00
14924;DHT22;7554;43.600;1.480;2022-09-17T13:23:41;21.70;1.00
14924;DHT22;7554;43.600;1.480;2022-09-17T13:26:11;21.80;1.00
14924;DHT22;7554;43.600;1.480;2022-09-17T13:28:43;21.80;1.00
14924;DHT22;7554;43.600;1.480;2022-09-17T13:31:17;21.90;1.00
14924;DHT22;7554;43.600;1.480;2022-09-17T13:33:50;21.80;1.00
14924;DHT22;7554;43.600;1.480;2022-09-17T13:36:44;21.80;1.00
14924;DHT22;7554;43.600;1.480;2022-09-17T13:39:36;21.60;1.00
14924;DHT22;7554;43.600;1.480;2022-09-17T13:42:07;21.60;1.00
14924;DHT22;7554;43.600;1.480;2022-09-17T13:44:40;21.70;1.00
14924;DHT22;7554;43.600;1.480;2022-09-17T13:47:21;21.70;1.00
14924;DHT22;7554;43.600;1.480;2022-09-17T13:49:51;21.80;1.00
14924;DHT22;7554;43.600;1.480;2022-09-17T13:52:47;21.80;1.00
14924;DHT22;7554;43.600;1.480;2022-09-17T13:55:34;21.90;1.00
14924;DHT22;7554;43.600;1.480;2022-09-17T13:58:03;21.80;1.00
14924;DHT22;7554;43.600;1.480;2022-09-17T14:00:51;21.80;1.00
14924;DHT22;7554;43.600;1.480;2022-09-17T14:03:52;21.80;1.00
14924;DHT22;7554;43.600;1.480;2022-09-17T14:06:50;21.80;1.00
14924;DHT22;7554;43.600;1.480;2022-09-17T14:09:51;21.80;1.00
14924;DHT22;7554;43.600;1.480;2022-09-17T14:12:57;21.70;1.00
14924;DHT22;7554;43.600;1.480;2022-09-17T14:15:58;21.70;1.00
14924;DHT22;7554;43.600;1.480;2022-09-17T14:21:25;21.80;1.00
14924;DHT22;7554;43.600;1.480;2022-09-17T14:23:56;21.70;1.00
14924;DHT22;7554;43.600;1.480;2022-09-17T14:26:34;21.70;1.00
14924;DHT22;7554;43.600;1.480;2022-09-17T14:29:12;21.60;1.00
14924;DHT22;7554;43.600;1.480;2022-09-17T14:31:43;21.60;1.00
14924;DHT22;7554;43.600;1.480;2022-09-17T14:34:22;21.50;1.00
14924;DHT22;7554;43.600;1.480;2022-09-17T14:36:52;21.50;1.00
14924;DHT22;7554;43.600;1.480;2022-09-17T14:39:23;21.50;1.00
14924;DHT22;7554;43.600;1.480;2022-09-17T14:41:52;21.60;1.00
14924;DHT22;7554;43.600;1.480;2022-09-17T14:44:21;21.60;1.00
14924;DHT22;7554;43.600;1.480;2022-09-17T14:46:55;21.60;1.00
14924;DHT22;7554;43.600;1.480;2022-09-17T14:49:24;21.60;1.00
14924;DHT22;7554;43.600;1.480;2022-09-17T14:51:54;21.50;1.00
14924;DHT22;7554;43.600;1.480;2022-09-17T14:54:24;21.50;1.00
14924;DHT22;7554;43.600;1.480;2022-09-17T14:56:58;21.50;1.00
14924;DHT22;7554;43.600;1.480;2022-09-17T14:59:41;21.50;1.00
14924;DHT22;7554;43.600;1.480;2022-09-17T15:02:32;21.50;1.00
14924;DHT22;7554;43.600;1.480;2022-09-17T15:05:00;21.40;1.00
14924;DHT22;7554;43.600;1.480;2022-09-17T15:07:30;21.40;1.00
14924;DHT22;7554;43.600;1.480;2022-09-17T15:10:08;21.50;1.00
14924;DHT22;7554;43.600;1.480;2022-09-17T15:12:38;21.40;1.00
14924;DHT22;7554;43.600;1.480;2022-09-17T15:15:17;21.50;1.00
14924;DHT22;7554;43.600;1.480;2022-09-17T15:17:46;21.50;1.00
14924;DHT22;7554;43.600;1.480;2022-09-17T15:20:17;21.50;1.00
14924;DHT22;7554;43.600;1.480;2022-09-17T15:22:51;21.40;1.00
14924;DHT22;7554;43.600;1.480;2022-09-17T15:25:22;21.30;1.00
14924;DHT22;7554;43.600;1.480;2022-09-17T15:27:53;21.40;1.00
14924;DHT22;7554;43.600;1.480;2022-09-17T15:30:23;21.40;1.00
14924;DHT22;7554;43.600;1.480;2022-09-17T15:32:52;21.30;1.00
14924;DHT22;7554;43.600;1.480;2022-09-17T15:35:22;21.40;1.00
14924;DHT22;7554;43.600;1.480;2022-09-17T15:37:55;21.40;1.00
14924;DHT22;7554;43.600;1.480;2022-09-17T15:40:26;21.40;1.00
14924;DHT22;7554;43.600;1.480;2022-09-17T15:43:01;21.40;1.00
14924;DHT22;7554;43.600;1.480;2022-09-17T15:45:29;21.30;1.00
14924;DHT22;7554;43.600;1.480;2022-09-17T15:47:59;21.30;1.00
14924;DHT22;7554;43.600;1.480;2022-09-17T15:50:27;21.30;1.00
14924;DHT22;7554;43.600;1.480;2022-09-17T15:53:13;21.30;1.00
14924;DHT22;7554;43.600;1.480;2022-09-17T15:55:42;21.30;1.00
14924;DHT22;7554;43.600;1.480;2022-09-17T15:58:21;21.20;1.00
14924;DHT22;7554;43.600;1.480;2022-09-17T16:06:47;21.20;1.00
14924;DHT22;7554;43.600;1.480;2022-09-17T16:09:50;21.20;1.00
14924;DHT22;7554;43.600;1.480;2022-09-17T16:12:20;21.10;1.00
14924;DHT22;7554;43.600;1.480;2022-09-17T16:14:49;21.10;1.00
14924;DHT22;7554;43.600;1.480;2022-09-17T16:17:29;21.10;1.00
14924;DHT22;7554;43.600;1.480;2022-09-17T16:20:06;21.00;1.00
14924;DHT22;7554;43.600;1.480;2022-09-17T16:22:34;21.00;1.00
14924;DHT22;7554;43.600;1.480;2022-09-17T16:25:03;21.00;1.00
14924;DHT22;7554;43.600;1.480;2022-09-17T16:27:37;21.00;1.00
14924;DHT22;7554;43.600;1.480;2022-09-17T16:30:06;21.00;1.00
14924;DHT22;7554;43.600;1.480;2022-09-17T16:32:35;20.90;1.00
14924;DHT22;7554;43.600;1.480;2022-09-17T16:35:02;20.80;1.00
14924;DHT22;7554;43.600;1.480;2022-09-17T16:37:30;20.80;1.00
14924;DHT22;7554;43.600;1.480;2022-09-17T16:39:58;20.80;1.00
14924;DHT22;7554;43.600;1.480;2022-09-17T16:42:30;20.70;1.00
14924;DHT22;7554;43.600;1.480;2022-09-17T16:44:58;20.70;1.00
14924;DHT22;7554;43.600;1.480;2022-09-17T16:47:28;20.70;1.00
14924;DHT22;7554;43.600;1.480;2022-09-17T16:49:56;20.60;1.00
14924;DHT22;7554;43.600;1.480;2022-09-17T16:52:23;20.60;1.00
14924;DHT22;7554;43.600;1.480;2022-09-17T16:54:50;20.60;1.00
14924;DHT22;7554;43.600;1.480;2022-09-17T16:57:18;20.50;1.00
14924;DHT22;7554;43.600;1.480;2022-09-17T16:59:47;20.50;1.00